« Back
NWS Peachtree City, Ga » Text Product » CSG Terminal Aerodrome Forecast


Printer-friendly Version
Current Version              Previous Versions:   1  2  3  4  5  6  7  8  9  

Terminal Aerodrome Forecast

033
FTUS42 KFFC 011132
TAFCSG
TAF
KCSG 011132Z 0112/0212 03003KT 4SM BR SCT002
      TEMPO 0112/0113 1/2SM FG VV002
     FM011400 05004KT P6SM FEW040 SCT250
     FM011600 06005KT P6SM BKN040
      TEMPO 0119/0123 5SM -TSRA BKN040CB
     FM020200 00000KT P6SM SCT250=

USA.gov is the U.S. government's official web portal to all federal, state and local government web resources and services.